Terminal Aerodrome Forecast
Issued by NWS Jackson, KY

Home | Current Version | Previous Version | Text Only | Print | Product List | Glossary On
Versions: 1 2 3 4 5 6 7 8 9 10 11 12 13 14 15 16 17 18 19 20 21
000
FTUS43 KJKL 230500
TAFLOZ
TAF
KLOZ 230521Z 2306/2406 VRB03KT P6SM SKC
     FM230800 VRB03KT 5SM BR SKC
     FM231100 25005KT P6SM VCSH BKN040
     FM232000 29009KT 3SM -TSRA BKN030CB
     FM240000 28009KT P6SM VCTS BKN020CB=

USA.gov is the U.S. government's official web portal to all federal, state and local government web resources and services.